Olympic National Park, WA

04:42 AM PST am 04. März 2015 (GMT -0800)
Foothills | Change Station
CLOSE
Current Station
Persönliche Wetterstationen
Location: Old Mill & Simmons Port Angeles, WA
Höhe: 955 ft
Wetterstationen in der Umgebung

Höhe 955 ft 48.08 °N, 123.45 °W | Updated 16 seconds ago

Heiter
Heiter
32.7 °F
gefühlte 33 °F
N
1.0
Wind Wechselnd Wind aus Südost
Gusts 2.0 mph

Heute
Max. -- | schwach -- °F
--% Regenrisiko
Gestern
Max. -- | schwach -- °F
Precip. -- inch
6:49 AM 6:02 PM
Zweites Viertel, 99% visible
Druck 30.27 inch
Sichtweite 10.0 Meilen
Wolken Heiter
Windchill 33 °F
Taupunkt 23 °F
Feuchtigkeit 68%
Regen 0.00 inch
Schneehöhe Nicht verfügbar..
UV 0 von 12
Pollen 5.30 von 12
Luftqualität Nicht verfügbar..
Flu Activity Nicht verfügbar..
METAR KCLM 041153Z AUTO 23006KT 10SM CLR M01/M05 A3027 RMK AO2 SLP251 T10061050 10022 21022 50003

More Conditions Fewer Conditions

Druck 30.27 inch
Sichtweite 10.0 Meilen
Wolken Heiter
Windchill 33 °F
Taupunkt 23 °F
Feuchtigkeit 68%
Regen 0.00 inch
Schneehöhe Nicht verfügbar..
UV 0 von 12
Pollen 5.30 von 12
Luftqualität Nicht verfügbar..
Flu Activity Nicht verfügbar..
METAR KCLM 041153Z AUTO 23006KT 10SM CLR M01/M05 A3027 RMK AO2 SLP251 T10061050 10022 21022 50003

More Conditions Fewer Conditions

10-Day Weather Forecast

Almanac

Astronomie

Mar. 04, 2015 Aufgang Untergang
Genaue Zeit
Bürgerliche Dämmerung
Nautische Dämmerung
Astronomische Dämmerung
Mond
Länge des sichtbaren Lichts
Tageslänge
Tomorrow will be .
, % of the Moon is Illuminated

Heutige Rekorde

State Highs State Lows

Community

WunderPhotos

Upload Photos

1,802,441 Fotos hochgeladen!

WunderBlogs® & News

Nearby

Luftqualität

  Luftqualität LQ Index Schadstoff
Not available.

Schneehöhe

Station Depth Höhe

Erdbebenaktivität

Stadt Distance Mag. Time & Date
Minimum magnitude displayed is 2.5.

küstennahe Wassertemperaturen

Ort Temperatur

Wetterstationen in der Umgebung